sensor_id;sensor_type;location;lat;lon;timestamp;pressure;altitude;pressure_sealevel;temperature;humidity
19096;BME280;9680;52.520;13.332;2023-05-13T00:01:37;101740.34;;;16.32;40.43
19096;BME280;9680;52.520;13.332;2023-05-13T00:04:05;101735.16;;;16.30;40.66
19096;BME280;9680;52.520;13.332;2023-05-13T00:06:39;101739.66;;;16.28;40.69
19096;BME280;9680;52.520;13.332;2023-05-13T00:09:09;101739.78;;;16.25;40.49
19096;BME280;9680;52.520;13.332;2023-05-13T00:11:52;101738.97;;;16.23;40.67
19096;BME280;9680;52.520;13.332;2023-05-13T00:14:26;101743.44;;;16.21;40.73
19096;BME280;9680;52.520;13.332;2023-05-13T00:16:53;101734.00;;;16.17;40.92
19096;BME280;9680;52.520;13.332;2023-05-13T00:19:31;101739.34;;;16.15;40.79
19096;BME280;9680;52.520;13.332;2023-05-13T00:21:58;101743.81;;;16.13;41.02
19096;BME280;9680;52.520;13.332;2023-05-13T00:24:40;101747.50;;;16.09;40.97
19096;BME280;9680;52.520;13.332;2023-05-13T00:27:24;101748.56;;;16.05;40.82
19096;BME280;9680;52.520;13.332;2023-05-13T00:29:52;101747.72;;;16.05;41.23
19096;BME280;9680;52.520;13.332;2023-05-13T00:32:27;101747.00;;;16.01;41.03
19096;BME280;9680;52.520;13.332;2023-05-13T00:35:04;101748.00;;;15.98;41.15
19096;BME280;9680;52.520;13.332;2023-05-13T00:37:37;101751.69;;;15.94;41.45
19096;BME280;9680;52.520;13.332;2023-05-13T00:40:05;101750.88;;;15.92;41.69
19096;BME280;9680;52.520;13.332;2023-05-13T00:42:40;101756.28;;;15.89;41.26
19096;BME280;9680;52.520;13.332;2023-05-13T00:45:08;101754.59;;;15.86;41.60
19096;BME280;9680;52.520;13.332;2023-05-13T00:47:35;101749.34;;;15.86;41.80
19096;BME280;9680;52.520;13.332;2023-05-13T00:50:02;101758.16;;;15.85;41.61
19096;BME280;9680;52.520;13.332;2023-05-13T00:52:29;101759.00;;;15.86;41.68
19096;BME280;9680;52.520;13.332;2023-05-13T00:54:56;101758.16;;;15.85;41.87
19096;BME280;9680;52.520;13.332;2023-05-13T00:57:23;101750.22;;;15.87;41.73
19096;BME280;9680;52.520;13.332;2023-05-13T00:59:51;101754.50;;;15.90;41.84
19096;BME280;9680;52.520;13.332;2023-05-13T01:02:24;101764.03;;;15.92;41.52
19096;BME280;9680;52.520;13.332;2023-05-13T01:04:57;101762.13;;;15.96;41.42
19096;BME280;9680;52.520;13.332;2023-05-13T01:07:31;101762.91;;;15.98;41.54
19096;BME280;9680;52.520;13.332;2023-05-13T01:10:04;101763.84;;;15.97;41.89
19096;BME280;9680;52.520;13.332;2023-05-13T01:12:35;101770.66;;;16.01;41.63
19096;BME280;9680;52.520;13.332;2023-05-13T01:15:09;101771.63;;;15.98;41.72
19096;BME280;9680;52.520;13.332;2023-05-13T01:17:43;101769.88;;;15.99;41.74
19096;BME280;9680;52.520;13.332;2023-05-13T01:20:13;101770.56;;;16.02;41.49
19096;BME280;9680;52.520;13.332;2023-05-13T01:22:41;101776.63;;;16.05;41.68
19096;BME280;9680;52.520;13.332;2023-05-13T01:25:09;101781.09;;;16.02;41.75
19096;BME280;9680;52.520;13.332;2023-05-13T01:27:36;101782.16;;;15.98;41.64
19096;BME280;9680;52.520;13.332;2023-05-13T01:30:04;101780.53;;;15.96;41.72
19096;BME280;9680;52.520;13.332;2023-05-13T01:32:32;101787.75;;;15.91;41.85
19096;BME280;9680;52.520;13.332;2023-05-13T01:34:59;101796.63;;;15.88;41.60
19096;BME280;9680;52.520;13.332;2023-05-13T01:37:29;101784.50;;;15.84;42.01
19096;BME280;9680;52.520;13.332;2023-05-13T01:39:57;101791.59;;;15.82;42.01
19096;BME280;9680;52.520;13.332;2023-05-13T01:42:26;101793.44;;;15.80;41.84
19096;BME280;9680;52.520;13.332;2023-05-13T01:44:53;101792.53;;;15.81;41.84
19096;BME280;9680;52.520;13.332;2023-05-13T01:47:20;101795.16;;;15.81;42.09
19096;BME280;9680;52.520;13.332;2023-05-13T01:49:47;101803.03;;;15.81;42.18
19096;BME280;9680;52.520;13.332;2023-05-13T01:52:14;101797.91;;;15.78;42.11
19096;BME280;9680;52.520;13.332;2023-05-13T01:54:41;101786.75;;;15.72;42.09
19096;BME280;9680;52.520;13.332;2023-05-13T01:57:13;101792.25;;;15.66;42.15
19096;BME280;9680;52.520;13.332;2023-05-13T01:59:40;101795.06;;;15.62;42.21
19096;BME280;9680;52.520;13.332;2023-05-13T02:02:06;101794.41;;;15.56;42.44
19096;BME280;9680;52.520;13.332;2023-05-13T02:04:33;101792.84;;;15.52;42.46
19096;BME280;9680;52.520;13.332;2023-05-13T02:07:00;101795.66;;;15.48;42.67
19096;BME280;9680;52.520;13.332;2023-05-13T02:09:29;101792.09;;;15.49;42.31
19096;BME280;9680;52.520;13.332;2023-05-13T02:11:57;101786.81;;;15.50;42.33
19096;BME280;9680;52.520;13.332;2023-05-13T02:14:25;101794.56;;;15.53;42.46
19096;BME280;9680;52.520;13.332;2023-05-13T02:16:52;101795.53;;;15.51;42.56
19096;BME280;9680;52.520;13.332;2023-05-13T02:19:18;101793.81;;;15.50;42.24
19096;BME280;9680;52.520;13.332;2023-05-13T02:21:47;101800.84;;;15.49;42.54
19096;BME280;9680;52.520;13.332;2023-05-13T02:24:13;101801.03;;;15.44;42.56
19096;BME280;9680;52.520;13.332;2023-05-13T02:26:40;101794.16;;;15.42;42.45
19096;BME280;9680;52.520;13.332;2023-05-13T02:29:09;101790.00;;;15.36;42.72
19096;BME280;9680;52.520;13.332;2023-05-13T02:31:37;101798.13;;;15.30;42.98
19096;BME280;9680;52.520;13.332;2023-05-13T02:34:06;101802.72;;;15.25;43.03
19096;BME280;9680;52.520;13.332;2023-05-13T02:36:33;101803.75;;;15.21;43.02
19096;BME280;9680;52.520;13.332;2023-05-13T02:39:03;101803.94;;;15.16;43.17
19096;BME280;9680;52.520;13.332;2023-05-13T02:41:31;101806.75;;;15.11;43.09
19096;BME280;9680;52.520;13.332;2023-05-13T02:43:57;101807.84;;;15.06;43.37
19096;BME280;9680;52.520;13.332;2023-05-13T02:46:25;101809.63;;;15.05;43.17
19096;BME280;9680;52.520;13.332;2023-05-13T02:48:54;101799.25;;;15.02;43.50
19096;BME280;9680;52.520;13.332;2023-05-13T02:51:21;101808.09;;;14.99;43.50
19096;BME280;9680;52.520;13.332;2023-05-13T02:53:48;101809.13;;;14.95;43.69
19096;BME280;9680;52.520;13.332;2023-05-13T02:56:16;101803.97;;;14.94;43.45
19096;BME280;9680;52.520;13.332;2023-05-13T02:58:43;101813.47;;;14.96;43.77
19096;BME280;9680;52.520;13.332;2023-05-13T03:01:09;101813.34;;;14.99;43.49
19096;BME280;9680;52.520;13.332;2023-05-13T03:03:36;101805.34;;;15.03;43.49
19096;BME280;9680;52.520;13.332;2023-05-13T03:06:05;101810.44;;;15.07;43.34
19096;BME280;9680;52.520;13.332;2023-05-13T03:08:32;101814.56;;;15.13;43.45
19096;BME280;9680;52.520;13.332;2023-05-13T03:10:59;101821.47;;;15.16;43.48
19096;BME280;9680;52.520;13.332;2023-05-13T03:13:26;101817.19;;;15.13;43.15
19096;BME280;9680;52.520;13.332;2023-05-13T03:15:53;101817.19;;;15.13;43.19
19096;BME280;9680;52.520;13.332;2023-05-13T03:18:20;101818.22;;;15.09;43.14
19096;BME280;9680;52.520;13.332;2023-05-13T03:20:47;101817.50;;;15.05;43.44
19096;BME280;9680;52.520;13.332;2023-05-13T03:23:15;101819.47;;;15.00;43.66
19096;BME280;9680;52.520;13.332;2023-05-13T03:25:44;101827.50;;;14.95;43.26
19096;BME280;9680;52.520;13.332;2023-05-13T03:28:11;101824.06;;;14.93;43.55
19096;BME280;9680;52.520;13.332;2023-05-13T03:30:41;101831.09;;;14.93;43.50
19096;BME280;9680;52.520;13.332;2023-05-13T03:33:13;101823.25;;;14.93;43.39
19096;BME280;9680;52.520;13.332;2023-05-13T03:35:40;101826.88;;;14.89;43.62
19096;BME280;9680;52.520;13.332;2023-05-13T03:38:07;101822.53;;;14.88;43.61
19096;BME280;9680;52.520;13.332;2023-05-13T03:40:39;101830.53;;;14.84;43.53
19096;BME280;9680;52.520;13.332;2023-05-13T03:43:06;101823.69;;;14.80;43.64
19096;BME280;9680;52.520;13.332;2023-05-13T03:45:35;101824.59;;;14.79;43.83
19096;BME280;9680;52.520;13.332;2023-05-13T03:48:06;101837.91;;;14.75;43.63
19096;BME280;9680;52.520;13.332;2023-05-13T03:50:33;101833.63;;;14.72;43.95
19096;BME280;9680;52.520;13.332;2023-05-13T03:53:03;101835.34;;;14.73;43.82
19096;BME280;9680;52.520;13.332;2023-05-13T03:55:31;101837.13;;;14.73;43.52
19096;BME280;9680;52.520;13.332;2023-05-13T03:58:09;101840.53;;;14.75;43.61
19096;BME280;9680;52.520;13.332;2023-05-13T04:00:36;101835.09;;;14.79;43.61
19096;BME280;9680;52.520;13.332;2023-05-13T04:03:03;101833.22;;;14.83;43.57
19096;BME280;9680;52.520;13.332;2023-05-13T04:05:31;101841.94;;;14.83;43.63
19096;BME280;9680;52.520;13.332;2023-05-13T04:07:57;101853.34;;;14.82;43.54
19096;BME280;9680;52.520;13.332;2023-05-13T04:10:24;101854.22;;;14.83;43.66
19096;BME280;9680;52.520;13.332;2023-05-13T04:12:51;101857.75;;;14.82;43.61
19096;BME280;9680;52.520;13.332;2023-05-13T04:15:19;101859.44;;;14.83;43.52
19096;BME280;9680;52.520;13.332;2023-05-13T04:17:46;101866.44;;;14.82;43.72
19096;BME280;9680;52.520;13.332;2023-05-13T04:20:13;101860.38;;;14.82;43.64
19096;BME280;9680;52.520;13.332;2023-05-13T04:22:40;101866.53;;;14.81;43.73
19096;BME280;9680;52.520;13.332;2023-05-13T04:25:07;101869.16;;;14.81;43.69
19096;BME280;9680;52.520;13.332;2023-05-13T04:27:34;101871.69;;;14.82;43.49
19096;BME280;9680;52.520;13.332;2023-05-13T04:30:09;101870.78;;;14.83;43.52
19096;BME280;9680;52.520;13.332;2023-05-13T04:32:39;101881.16;;;14.87;43.45
19096;BME280;9680;52.520;13.332;2023-05-13T04:35:07;101882.81;;;14.89;43.30
19096;BME280;9680;52.520;13.332;2023-05-13T04:37:35;101877.41;;;14.94;43.06
19096;BME280;9680;52.520;13.332;2023-05-13T04:40:05;101883.25;;;15.00;43.16
19096;BME280;9680;52.520;13.332;2023-05-13T04:42:33;101874.44;;;15.03;42.81
19096;BME280;9680;52.520;13.332;2023-05-13T04:45:00;101885.72;;;15.05;43.20
19096;BME280;9680;52.520;13.332;2023-05-13T04:47:27;101887.44;;;15.06;42.70
19096;BME280;9680;52.520;13.332;2023-05-13T04:49:55;101893.47;;;15.08;42.76
19096;BME280;9680;52.520;13.332;2023-05-13T04:52:22;101899.53;;;15.10;42.78
19096;BME280;9680;52.520;13.332;2023-05-13T04:54:50;101902.81;;;15.16;42.61
19096;BME280;9680;52.520;13.332;2023-05-13T04:57:17;101895.75;;;15.18;42.38
19096;BME280;9680;52.520;13.332;2023-05-13T04:59:45;101894.53;;;15.26;42.36
19096;BME280;9680;52.520;13.332;2023-05-13T05:02:12;101896.84;;;15.34;42.27
19096;BME280;9680;52.520;13.332;2023-05-13T05:04:39;101894.88;;;15.39;41.87
19096;BME280;9680;52.520;13.332;2023-05-13T05:07:12;101895.63;;;15.43;41.85
19096;BME280;9680;52.520;13.332;2023-05-13T05:09:39;101895.56;;;15.44;41.60
19096;BME280;9680;52.520;13.332;2023-05-13T05:12:07;101897.09;;;15.50;41.90
19096;BME280;9680;52.520;13.332;2023-05-13T05:14:37;101903.84;;;15.56;41.69
19096;BME280;9680;52.520;13.332;2023-05-13T05:17:05;101906.38;;;15.59;41.68
19096;BME280;9680;52.520;13.332;2023-05-13T05:19:33;101905.38;;;15.62;41.62
19096;BME280;9680;52.520;13.332;2023-05-13T05:22:00;101908.66;;;15.67;41.12
19096;BME280;9680;52.520;13.332;2023-05-13T05:24:28;101907.69;;;15.69;41.09
19096;BME280;9680;52.520;13.332;2023-05-13T05:26:55;101895.38;;;15.71;41.18
19096;BME280;9680;52.520;13.332;2023-05-13T05:29:23;101908.38;;;15.75;41.36
19096;BME280;9680;52.520;13.332;2023-05-13T05:31:49;101910.75;;;15.81;40.88
19096;BME280;9680;52.520;13.332;2023-05-13T05:34:16;101909.59;;;15.86;40.82
19096;BME280;9680;52.520;13.332;2023-05-13T05:36:43;101911.16;;;15.92;40.77
19096;BME280;9680;52.520;13.332;2023-05-13T05:39:11;101915.25;;;15.99;40.50
19096;BME280;9680;52.520;13.332;2023-05-13T05:41:39;101919.28;;;16.08;40.48
19096;BME280;9680;52.520;13.332;2023-05-13T05:44:06;101922.41;;;16.16;39.80
19096;BME280;9680;52.520;13.332;2023-05-13T05:46:33;101921.38;;;16.21;39.83
19096;BME280;9680;52.520;13.332;2023-05-13T05:49:00;101924.66;;;16.26;39.50
19096;BME280;9680;52.520;13.332;2023-05-13T05:51:30;101922.41;;;16.37;39.80
19096;BME280;9680;52.520;13.332;2023-05-13T05:53:58;101919.31;;;16.48;39.58
19096;BME280;9680;52.520;13.332;2023-05-13T05:56:25;101919.88;;;16.55;39.32
19096;BME280;9680;52.520;13.332;2023-05-13T05:58:54;101912.56;;;16.62;39.24
19096;BME280;9680;52.520;13.332;2023-05-13T06:01:24;101923.59;;;16.70;39.03
19096;BME280;9680;52.520;13.332;2023-05-13T06:03:51;101924.09;;;16.78;38.87
19096;BME280;9680;52.520;13.332;2023-05-13T06:06:21;101927.31;;;16.85;38.99
19096;BME280;9680;52.520;13.332;2023-05-13T06:08:48;101923.44;;;16.94;38.76
19096;BME280;9680;52.520;13.332;2023-05-13T06:11:15;101928.50;;;16.98;38.07
19096;BME280;9680;52.520;13.332;2023-05-13T06:13:41;101927.38;;;17.04;38.36
19096;BME280;9680;52.520;13.332;2023-05-13T06:16:10;101926.84;;;17.15;38.23
19096;BME280;9680;52.520;13.332;2023-05-13T06:18:37;101921.16;;;17.24;38.05
19096;BME280;9680;52.520;13.332;2023-05-13T06:21:04;101931.94;;;17.37;38.07
19096;BME280;9680;52.520;13.332;2023-05-13T06:23:31;101931.50;;;17.46;37.90
19096;BME280;9680;52.520;13.332;2023-05-13T06:25:58;101929.44;;;17.53;37.56
19096;BME280;9680;52.520;13.332;2023-05-13T06:28:25;101925.53;;;17.62;37.27
19096;BME280;9680;52.520;13.332;2023-05-13T06:30:52;101920.72;;;17.70;37.43
19096;BME280;9680;52.520;13.332;2023-05-13T06:33:21;101923.88;;;17.77;36.75
19096;BME280;9680;52.520;13.332;2023-05-13T06:35:49;101928.06;;;17.81;36.88
19096;BME280;9680;52.520;13.332;2023-05-13T06:38:21;101929.34;;;17.92;36.67
19096;BME280;9680;52.520;13.332;2023-05-13T06:40:52;101914.78;;;18.02;36.50
19096;BME280;9680;52.520;13.332;2023-05-13T06:43:25;101913.75;;;18.04;36.05
19096;BME280;9680;52.520;13.332;2023-05-13T06:45:56;101912.69;;;18.09;36.18
19096;BME280;9680;52.520;13.332;2023-05-13T06:48:26;101919.28;;;18.17;36.04
19096;BME280;9680;52.520;13.332;2023-05-13T06:50:53;101908.56;;;18.21;35.03
19096;BME280;9680;52.520;13.332;2023-05-13T06:53:20;101908.19;;;18.28;35.07
19096;BME280;9680;52.520;13.332;2023-05-13T06:55:47;101909.78;;;18.31;34.54
19096;BME280;9680;52.520;13.332;2023-05-13T06:58:13;101904.72;;;18.44;34.54
19096;BME280;9680;52.520;13.332;2023-05-13T07:00:40;101897.69;;;18.60;34.51
19096;BME280;9680;52.520;13.332;2023-05-13T07:03:15;101905.22;;;18.68;33.30
19096;BME280;9680;52.520;13.332;2023-05-13T07:06:03;101903.06;;;18.75;33.26
19096;BME280;9680;52.520;13.332;2023-05-13T07:08:33;101896.34;;;18.85;33.20
19096;BME280;9680;52.520;13.332;2023-05-13T07:11:00;101896.03;;;18.91;32.91
19096;BME280;9680;52.520;13.332;2023-05-13T07:13:30;101894.88;;;18.97;33.19
19096;BME280;9680;52.520;13.332;2023-05-13T07:15:59;101900.31;;;19.10;33.22
19096;BME280;9680;52.520;13.332;2023-05-13T07:18:26;101893.34;;;19.09;31.81
19096;BME280;9680;52.520;13.332;2023-05-13T07:20:57;101890.59;;;19.11;31.81
19096;BME280;9680;52.520;13.332;2023-05-13T07:23:24;101887.19;;;19.09;31.70
19096;BME280;9680;52.520;13.332;2023-05-13T07:25:51;101886.06;;;19.13;31.67
19096;BME280;9680;52.520;13.332;2023-05-13T07:28:18;101887.28;;;19.23;31.32
19096;BME280;9680;52.520;13.332;2023-05-13T07:30:45;101877.22;;;19.30;31.26
19096;BME280;9680;52.520;13.332;2023-05-13T07:33:12;101882.13;;;19.36;30.79
19096;BME280;9680;52.520;13.332;2023-05-13T07:35:38;101875.91;;;19.37;30.23
19096;BME280;9680;52.520;13.332;2023-05-13T07:38:08;101879.59;;;19.34;30.35
19096;BME280;9680;52.520;13.332;2023-05-13T07:40:36;101875.84;;;19.39;30.64
19096;BME280;9680;52.520;13.332;2023-05-13T07:43:03;101868.22;;;19.48;30.27
19096;BME280;9680;52.520;13.332;2023-05-13T07:45:30;101875.97;;;19.52;29.13
19096;BME280;9680;52.520;13.332;2023-05-13T07:47:57;101871.13;;;19.44;28.97
19096;BME280;9680;52.520;13.332;2023-05-13T07:50:24;101871.50;;;19.38;28.75
19096;BME280;9680;52.520;13.332;2023-05-13T07:52:50;101862.72;;;19.37;29.10
19096;BME280;9680;52.520;13.332;2023-05-13T07:55:19;101864.22;;;19.41;28.30
19096;BME280;9680;52.520;13.332;2023-05-13T07:57:46;101861.69;;;19.40;28.22
19096;BME280;9680;52.520;13.332;2023-05-13T08:00:13;101857.47;;;19.52;28.26
19096;BME280;9680;52.520;13.332;2023-05-13T08:02:42;101850.03;;;19.58;28.23
19096;BME280;9680;52.520;13.332;2023-05-13T08:05:09;101857.72;;;19.63;28.32
19096;BME280;9680;52.520;13.332;2023-05-13T08:07:36;101854.38;;;19.59;27.25
19096;BME280;9680;52.520;13.332;2023-05-13T08:10:04;101859.59;;;19.61;28.04
19096;BME280;9680;52.520;13.332;2023-05-13T08:12:32;101854.41;;;19.74;28.57
19096;BME280;9680;52.520;13.332;2023-05-13T08:15:00;101856.03;;;19.92;29.05
19096;BME280;9680;52.520;13.332;2023-05-13T08:17:28;101856.59;;;20.12;28.46
19096;BME280;9680;52.520;13.332;2023-05-13T08:19:54;101866.22;;;20.13;28.77
19096;BME280;9680;52.520;13.332;2023-05-13T08:22:21;101865.84;;;20.05;28.81
19096;BME280;9680;52.520;13.332;2023-05-13T08:24:48;101867.81;;;20.01;29.21
19096;BME280;9680;52.520;13.332;2023-05-13T08:27:15;101872.91;;;20.04;29.47
19096;BME280;9680;52.520;13.332;2023-05-13T08:29:44;101858.84;;;20.04;29.51
19096;BME280;9680;52.520;13.332;2023-05-13T08:32:10;101864.59;;;19.96;29.68
19096;BME280;9680;52.520;13.332;2023-05-13T08:34:37;101873.47;;;19.95;29.71
19096;BME280;9680;52.520;13.332;2023-05-13T08:37:04;101871.69;;;19.96;29.97
19096;BME280;9680;52.520;13.332;2023-05-13T08:39:31;101867.56;;;20.06;29.94
19096;BME280;9680;52.520;13.332;2023-05-13T08:42:01;101871.59;;;19.97;29.93
19096;BME280;9680;52.520;13.332;2023-05-13T08:44:31;101864.53;;;19.98;30.20
19096;BME280;9680;52.520;13.332;2023-05-13T08:47:05;101877.75;;;20.12;30.42
19096;BME280;9680;52.520;13.332;2023-05-13T08:49:34;101873.31;;;20.13;29.94
19096;BME280;9680;52.520;13.332;2023-05-13T08:52:02;101873.22;;;20.14;29.90
19096;BME280;9680;52.520;13.332;2023-05-13T08:54:30;101870.13;;;20.22;29.68
19096;BME280;9680;52.520;13.332;2023-05-13T08:57:01;101876.72;;;20.29;30.06
19096;BME280;9680;52.520;13.332;2023-05-13T08:59:36;101884.75;;;20.42;29.69
19096;BME280;9680;52.520;13.332;2023-05-13T09:02:31;101859.16;;;20.43;29.91
19096;BME280;9680;52.520;13.332;2023-05-13T09:05:17;101878.41;;;20.59;30.14
19096;BME280;9680;52.520;13.332;2023-05-13T09:08:29;101873.19;;;20.72;30.12
19096;BME280;9680;52.520;13.332;2023-05-13T09:11:09;101859.22;;;20.85;30.08
19096;BME280;9680;52.520;13.332;2023-05-13T09:13:55;101872.72;;;20.94;30.19
19096;BME280;9680;52.520;13.332;2023-05-13T09:16:23;101865.97;;;21.03;29.86
19096;BME280;9680;52.520;13.332;2023-05-13T09:18:59;101853.94;;;21.12;29.80
19096;BME280;9680;52.520;13.332;2023-05-13T09:21:28;101862.63;;;21.14;28.99
19096;BME280;9680;52.520;13.332;2023-05-13T09:24:06;101855.22;;;21.19;28.12
19096;BME280;9680;52.520;13.332;2023-05-13T09:26:34;101868.19;;;21.24;28.47
19096;BME280;9680;52.520;13.332;2023-05-13T09:29:33;101854.41;;;21.32;27.91
19096;BME280;9680;52.520;13.332;2023-05-13T09:32:08;101848.19;;;21.46;28.18
19096;BME280;9680;52.520;13.332;2023-05-13T09:34:38;101852.78;;;21.57;27.79
19096;BME280;9680;52.520;13.332;2023-05-13T09:37:24;101845.38;;;21.62;28.04
19096;BME280;9680;52.520;13.332;2023-05-13T09:40:20;101854.94;;;21.64;26.89
19096;BME280;9680;52.520;13.332;2023-05-13T09:42:48;101851.63;;;21.61;27.40
19096;BME280;9680;52.520;13.332;2023-05-13T09:45:16;101844.63;;;21.60;26.96
19096;BME280;9680;52.520;13.332;2023-05-13T09:47:50;101842.00;;;21.73;27.21
19096;BME280;9680;52.520;13.332;2023-05-13T09:50:21;101842.69;;;21.89;26.62
19096;BME280;9680;52.520;13.332;2023-05-13T09:52:49;101832.78;;;22.17;26.47
19096;BME280;9680;52.520;13.332;2023-05-13T09:55:16;101830.63;;;22.35;24.73
19096;BME280;9680;52.520;13.332;2023-05-13T09:57:44;101834.56;;;22.30;24.89
19096;BME280;9680;52.520;13.332;2023-05-13T10:00:12;101829.91;;;22.20;24.62
19096;BME280;9680;52.520;13.332;2023-05-13T10:02:39;101834.34;;;22.20;24.88
19096;BME280;9680;52.520;13.332;2023-05-13T10:05:07;101838.63;;;22.22;23.93
19096;BME280;9680;52.520;13.332;2023-05-13T10:07:37;101834.16;;;22.10;23.80
19096;BME280;9680;52.520;13.332;2023-05-13T10:10:06;101834.47;;;22.05;23.77
19096;BME280;9680;52.520;13.332;2023-05-13T10:12:34;101834.16;;;21.97;23.66
19096;BME280;9680;52.520;13.332;2023-05-13T10:15:04;101838.19;;;21.90;23.75
19096;BME280;9680;52.520;13.332;2023-05-13T10:17:33;101834.81;;;21.88;23.54
19096;BME280;9680;52.520;13.332;2023-05-13T10:20:01;101834.81;;;21.88;23.88
19096;BME280;9680;52.520;13.332;2023-05-13T10:22:31;101832.69;;;21.93;23.58
19096;BME280;9680;52.520;13.332;2023-05-13T10:25:01;101830.78;;;21.95;23.89
19096;BME280;9680;52.520;13.332;2023-05-13T10:27:31;101821.53;;;22.14;24.04
19096;BME280;9680;52.520;13.332;2023-05-13T10:29:59;101813.56;;;22.26;23.81
19096;BME280;9680;52.520;13.332;2023-05-13T10:32:28;101831.25;;;22.39;23.06
19096;BME280;9680;52.520;13.332;2023-05-13T10:34:59;101822.91;;;22.32;23.09
19096;BME280;9680;52.520;13.332;2023-05-13T10:37:41;101824.06;;;22.28;23.27
19096;BME280;9680;52.520;13.332;2023-05-13T10:40:33;101817.91;;;22.28;23.36
19096;BME280;9680;52.520;13.332;2023-05-13T10:43:15;101823.72;;;22.33;23.20
19096;BME280;9680;52.520;13.332;2023-05-13T10:45:45;101816.84;;;22.30;22.94
19096;BME280;9680;52.520;13.332;2023-05-13T10:48:13;101813.34;;;22.30;22.65
19096;BME280;9680;52.520;13.332;2023-05-13T10:50:50;101816.94;;;22.29;23.16
19096;BME280;9680;52.520;13.332;2023-05-13T10:53:21;101812.06;;;22.35;23.51
19096;BME280;9680;52.520;13.332;2023-05-13T10:55:54;101818.84;;;22.39;23.07
19096;BME280;9680;52.520;13.332;2023-05-13T10:58:27;101814.91;;;22.45;23.13
19096;BME280;9680;52.520;13.332;2023-05-13T11:01:11;101814.47;;;22.51;23.43
19096;BME280;9680;52.520;13.332;2023-05-13T11:03:39;101815.53;;;22.62;23.21
19096;BME280;9680;52.520;13.332;2023-05-13T11:06:16;101826.47;;;22.57;23.49
19096;BME280;9680;52.520;13.332;2023-05-13T11:08:48;101821.28;;;22.56;22.79
19096;BME280;9680;52.520;13.332;2023-05-13T11:11:25;101821.59;;;22.51;22.71
19096;BME280;9680;52.520;13.332;2023-05-13T11:13:53;101816.94;;;22.42;22.05
19096;BME280;9680;52.520;13.332;2023-05-13T11:16:21;101806.53;;;22.38;22.55
19096;BME280;9680;52.520;13.332;2023-05-13T11:18:50;101806.19;;;22.43;22.28
19096;BME280;9680;52.520;13.332;2023-05-13T11:21:28;101815.97;;;22.43;22.49
19096;BME280;9680;52.520;13.332;2023-05-13T11:23:56;101813.75;;;22.49;22.13
19096;BME280;9680;52.520;13.332;2023-05-13T11:26:42;101820.44;;;22.55;21.57
19096;BME280;9680;52.520;13.332;2023-05-13T11:29:09;101808.31;;;22.64;21.89
19096;BME280;9680;52.520;13.332;2023-05-13T11:31:47;101815.91;;;22.68;22.18
19096;BME280;9680;52.520;13.332;2023-05-13T11:34:15;101811.13;;;22.74;22.38
19096;BME280;9680;52.520;13.332;2023-05-13T11:36:44;101807.03;;;22.81;22.60
19096;BME280;9680;52.520;13.332;2023-05-13T11:39:13;101798.28;;;22.92;22.43
19096;BME280;9680;52.520;13.332;2023-05-13T11:41:44;101794.63;;;23.06;22.33
19096;BME280;9680;52.520;13.332;2023-05-13T11:44:12;101801.97;;;23.02;22.11
19096;BME280;9680;52.520;13.332;2023-05-13T11:46:53;101802.69;;;23.04;21.92
19096;BME280;9680;52.520;13.332;2023-05-13T11:49:47;101795.44;;;23.06;22.37
19096;BME280;9680;52.520;13.332;2023-05-13T11:52:18;101792.97;;;23.16;22.20
19096;BME280;9680;52.520;13.332;2023-05-13T11:54:48;101798.63;;;23.11;21.27
19096;BME280;9680;52.520;13.332;2023-05-13T11:57:27;101792.16;;;22.91;21.73
19096;BME280;9680;52.520;13.332;2023-05-13T11:59:58;101796.94;;;22.86;21.67
19096;BME280;9680;52.520;13.332;2023-05-13T12:02:26;101791.50;;;22.88;21.84
19096;BME280;9680;52.520;13.332;2023-05-13T12:04:54;101794.41;;;22.84;22.08
19096;BME280;9680;52.520;13.332;2023-05-13T12:07:22;101791.75;;;22.84;22.55
19096;BME280;9680;52.520;13.332;2023-05-13T12:09:49;101788.75;;;22.89;21.99
19096;BME280;9680;52.520;13.332;2023-05-13T12:12:17;101782.53;;;23.02;22.39
19096;BME280;9680;52.520;13.332;2023-05-13T12:14:46;101785.00;;;23.16;22.42
19096;BME280;9680;52.520;13.332;2023-05-13T12:17:15;101790.69;;;23.23;21.72
19096;BME280;9680;52.520;13.332;2023-05-13T12:20:03;101779.69;;;23.16;21.39
19096;BME280;9680;52.520;13.332;2023-05-13T12:22:30;101782.00;;;23.21;21.81
19096;BME280;9680;52.520;13.332;2023-05-13T12:24:57;101781.59;;;23.50;21.77
19096;BME280;9680;52.520;13.332;2023-05-13T12:27:25;101777.66;;;23.67;21.64
19096;BME280;9680;52.520;13.332;2023-05-13T12:29:54;101789.75;;;23.71;21.63
19096;BME280;9680;52.520;13.332;2023-05-13T12:32:23;101790.94;;;23.67;21.87
19096;BME280;9680;52.520;13.332;2023-05-13T12:34:50;101787.19;;;23.69;21.92
19096;BME280;9680;52.520;13.332;2023-05-13T12:37:17;101777.66;;;23.67;20.93
19096;BME280;9680;52.520;13.332;2023-05-13T12:39:43;101784.41;;;23.60;20.92
19096;BME280;9680;52.520;13.332;2023-05-13T12:42:14;101787.06;;;23.60;20.98
19096;BME280;9680;52.520;13.332;2023-05-13T12:44:42;101784.59;;;23.45;21.30
19096;BME280;9680;52.520;13.332;2023-05-13T12:47:11;101786.91;;;23.38;21.48
19096;BME280;9680;52.520;13.332;2023-05-13T12:49:52;101785.94;;;23.39;21.83
19096;BME280;9680;52.520;13.332;2023-05-13T12:52:19;101771.69;;;23.52;21.59
19096;BME280;9680;52.520;13.332;2023-05-13T12:54:46;101765.19;;;23.67;21.97
19096;BME280;9680;52.520;13.332;2023-05-13T12:57:14;101767.63;;;23.93;21.87
19096;BME280;9680;52.520;13.332;2023-05-13T12:59:41;101769.09;;;24.20;21.94
19096;BME280;9680;52.520;13.332;2023-05-13T13:02:08;101781.28;;;24.46;21.84
19096;BME280;9680;52.520;13.332;2023-05-13T13:04:36;101774.13;;;24.46;20.94